KFNL/FNL METAR and TAF weather

Enter ICAO airport designator
Station Type Date Time Source
KFNL METAR 2019/08/19 06:56 UTC NOAA

KFNL 190656Z AUTO 36004KT 10SM CLR 18/13 A3003 RMK AO2 SLP115 T01830133 403060122


Station Type Date Time Source
KFNL Decoded METAR 2019/08/19 06:56 UTC NOAA

Station name not available
Aug 19, 2019 - 02:56 AM EDT / 2019.08.19 0656 UTC
Wind: from the N (360 degrees) at 5 MPH (4 KT):0
Visibility: 10 mile(s):0
Sky conditions: clear
Temperature: 64.9 F (18.3 C)
Dew Point: 55.9 F (13.3 C)
Relative Humidity: 72%
Pressure (altimeter): 30.03 in. Hg (1016 hPa)
ob: KFNL 190656Z AUTO 36004KT 10SM CLR 18/13 A3003 RMK AO2 SLP115 T01830133 403060122
cycle: 7

Station Type Date Time Source
KFNL TAF UTC NOAA

Error!

Example: see airport list